sensor_id;sensor_type;location;lat;lon;timestamp;P1;durP1;ratioP1;P2;durP2;ratioP2
80711;SDS011;70078;51.596;5.678;2023-09-19T00:02:04;6.88;;;1.60;;
80711;SDS011;70078;51.596;5.678;2023-09-19T00:04:42;10.07;;;2.47;;
80711;SDS011;70078;51.596;5.678;2023-09-19T00:07:14;7.38;;;1.85;;
80711;SDS011;70078;51.596;5.678;2023-09-19T00:12:50;9.93;;;1.58;;
80711;SDS011;70078;51.596;5.678;2023-09-19T00:15:48;10.27;;;2.38;;
80711;SDS011;70078;51.596;5.678;2023-09-19T00:18:20;8.75;;;2.38;;
80711;SDS011;70078;51.596;5.678;2023-09-19T00:21:08;9.25;;;2.30;;
80711;SDS011;70078;51.596;5.678;2023-09-19T00:23:35;11.80;;;2.85;;
80711;SDS011;70078;51.596;5.678;2023-09-19T00:28:57;14.75;;;2.90;;
80711;SDS011;70078;51.596;5.678;2023-09-19T00:31:24;10.13;;;2.85;;
80711;SDS011;70078;51.596;5.678;2023-09-19T00:33:50;11.60;;;2.15;;
80711;SDS011;70078;51.596;5.678;2023-09-19T00:36:16;7.97;;;2.58;;
80711;SDS011;70078;51.596;5.678;2023-09-19T00:38:43;11.07;;;1.73;;
80711;SDS011;70078;51.596;5.678;2023-09-19T00:41:10;8.88;;;2.10;;
80711;SDS011;70078;51.596;5.678;2023-09-19T00:43:37;10.77;;;1.92;;
80711;SDS011;70078;51.596;5.678;2023-09-19T00:46:04;13.18;;;2.55;;
80711;SDS011;70078;51.596;5.678;2023-09-19T00:48:38;5.28;;;2.80;;
80711;SDS011;70078;51.596;5.678;2023-09-19T00:51:08;6.93;;;2.05;;
80711;SDS011;70078;51.596;5.678;2023-09-19T00:53:46;8.05;;;2.03;;
80711;SDS011;70078;51.596;5.678;2023-09-19T00:56:12;8.90;;;1.83;;
80711;SDS011;70078;51.596;5.678;2023-09-19T00:58:38;9.30;;;1.63;;
80711;SDS011;70078;51.596;5.678;2023-09-19T01:01:05;9.95;;;2.30;;
80711;SDS011;70078;51.596;5.678;2023-09-19T01:03:32;8.57;;;2.30;;
80711;SDS011;70078;51.596;5.678;2023-09-19T01:05:59;6.32;;;2.13;;
80711;SDS011;70078;51.596;5.678;2023-09-19T01:08:27;6.13;;;1.73;;
80711;SDS011;70078;51.596;5.678;2023-09-19T01:13:55;13.20;;;2.35;;
80711;SDS011;70078;51.596;5.678;2023-09-19T01:22:16;6.65;;;2.20;;
80711;SDS011;70078;51.596;5.678;2023-09-19T01:30:32;9.90;;;1.75;;
80711;SDS011;70078;51.596;5.678;2023-09-19T01:33:01;13.48;;;2.35;;
80711;SDS011;70078;51.596;5.678;2023-09-19T01:35:27;8.82;;;1.95;;
80711;SDS011;70078;51.596;5.678;2023-09-19T01:37:52;8.52;;;2.05;;
80711;SDS011;70078;51.596;5.678;2023-09-19T01:40:18;10.85;;;2.10;;
80711;SDS011;70078;51.596;5.678;2023-09-19T01:42:49;8.75;;;2.45;;
80711;SDS011;70078;51.596;5.678;2023-09-19T01:45:44;10.00;;;2.35;;
80711;SDS011;70078;51.596;5.678;2023-09-19T01:48:35;10.38;;;2.10;;
80711;SDS011;70078;51.596;5.678;2023-09-19T01:51:36;6.05;;;1.70;;
80711;SDS011;70078;51.596;5.678;2023-09-19T01:54:12;8.50;;;2.33;;
80711;SDS011;70078;51.596;5.678;2023-09-19T01:59:45;8.63;;;1.92;;
80711;SDS011;70078;51.596;5.678;2023-09-19T02:15:15;11.38;;;2.15;;
80711;SDS011;70078;51.596;5.678;2023-09-19T02:24:40;9.60;;;2.20;;
80711;SDS011;70078;51.596;5.678;2023-09-19T02:27:08;6.85;;;1.42;;
80711;SDS011;70078;51.596;5.678;2023-09-19T02:53:41;7.38;;;2.20;;
80711;SDS011;70078;51.596;5.678;2023-09-19T02:56:15;9.70;;;1.77;;
80711;SDS011;70078;51.596;5.678;2023-09-19T03:01:50;9.52;;;2.08;;
80711;SDS011;70078;51.596;5.678;2023-09-19T03:04:18;5.63;;;1.63;;
80711;SDS011;70078;51.596;5.678;2023-09-19T03:07:11;9.85;;;2.15;;
80711;SDS011;70078;51.596;5.678;2023-09-19T03:09:37;7.10;;;2.08;;
80711;SDS011;70078;51.596;5.678;2023-09-19T03:12:10;8.60;;;2.28;;
80711;SDS011;70078;51.596;5.678;2023-09-19T03:14:57;6.72;;;2.08;;
80711;SDS011;70078;51.596;5.678;2023-09-19T03:17:29;11.27;;;1.92;;
80711;SDS011;70078;51.596;5.678;2023-09-19T03:30:02;7.03;;;1.67;;
80711;SDS011;70078;51.596;5.678;2023-09-19T03:32:47;11.55;;;2.22;;
80711;SDS011;70078;51.596;5.678;2023-09-19T03:35:24;7.68;;;2.03;;
80711;SDS011;70078;51.596;5.678;2023-09-19T03:37:57;8.25;;;1.95;;
80711;SDS011;70078;51.596;5.678;2023-09-19T03:40:32;6.18;;;1.55;;
80711;SDS011;70078;51.596;5.678;2023-09-19T03:43:05;7.97;;;1.58;;
80711;SDS011;70078;51.596;5.678;2023-09-19T03:45:38;9.57;;;1.80;;
80711;SDS011;70078;51.596;5.678;2023-09-19T03:48:10;8.18;;;2.28;;
80711;SDS011;70078;51.596;5.678;2023-09-19T03:53:36;7.53;;;1.65;;
80711;SDS011;70078;51.596;5.678;2023-09-19T03:56:15;7.57;;;2.10;;
80711;SDS011;70078;51.596;5.678;2023-09-19T03:58:40;6.00;;;1.70;;
80711;SDS011;70078;51.596;5.678;2023-09-19T04:01:09;7.68;;;2.20;;
80711;SDS011;70078;51.596;5.678;2023-09-19T04:03:58;5.68;;;1.83;;
80711;SDS011;70078;51.596;5.678;2023-09-19T04:06:42;8.25;;;1.90;;
80711;SDS011;70078;51.596;5.678;2023-09-19T04:09:09;11.40;;;1.70;;
80711;SDS011;70078;51.596;5.678;2023-09-19T04:14:15;7.68;;;2.10;;
80711;SDS011;70078;51.596;5.678;2023-09-19T04:16:42;10.85;;;2.17;;
80711;SDS011;70078;51.596;5.678;2023-09-19T04:19:11;8.15;;;1.85;;
80711;SDS011;70078;51.596;5.678;2023-09-19T04:21:36;5.95;;;1.42;;
80711;SDS011;70078;51.596;5.678;2023-09-19T04:24:06;8.52;;;2.35;;
80711;SDS011;70078;51.596;5.678;2023-09-19T04:26:34;8.93;;;2.03;;
80711;SDS011;70078;51.596;5.678;2023-09-19T04:29:33;7.03;;;1.77;;
80711;SDS011;70078;51.596;5.678;2023-09-19T04:32:03;8.55;;;2.20;;
80711;SDS011;70078;51.596;5.678;2023-09-19T04:34:41;10.27;;;2.28;;
80711;SDS011;70078;51.596;5.678;2023-09-19T04:37:16;8.75;;;2.60;;
80711;SDS011;70078;51.596;5.678;2023-09-19T04:39:51;8.80;;;2.30;;
80711;SDS011;70078;51.596;5.678;2023-09-19T04:42:25;8.15;;;2.25;;
80711;SDS011;70078;51.596;5.678;2023-09-19T04:44:58;10.15;;;2.50;;
80711;SDS011;70078;51.596;5.678;2023-09-19T04:50:22;10.77;;;1.88;;
80711;SDS011;70078;51.596;5.678;2023-09-19T04:53:04;6.38;;;1.95;;
80711;SDS011;70078;51.596;5.678;2023-09-19T04:55:30;7.50;;;1.48;;
80711;SDS011;70078;51.596;5.678;2023-09-19T04:58:29;8.80;;;1.63;;
80711;SDS011;70078;51.596;5.678;2023-09-19T05:04:41;8.20;;;1.98;;
80711;SDS011;70078;51.596;5.678;2023-09-19T05:10:51;8.60;;;2.08;;
80711;SDS011;70078;51.596;5.678;2023-09-19T05:17:43;9.88;;;1.95;;
80711;SDS011;70078;51.596;5.678;2023-09-19T05:20:20;11.52;;;2.00;;
80711;SDS011;70078;51.596;5.678;2023-09-19T05:23:00;9.52;;;2.40;;
80711;SDS011;70078;51.596;5.678;2023-09-19T05:25:37;6.75;;;2.28;;
80711;SDS011;70078;51.596;5.678;2023-09-19T05:28:26;7.93;;;1.83;;
80711;SDS011;70078;51.596;5.678;2023-09-19T05:30:52;9.20;;;2.30;;
80711;SDS011;70078;51.596;5.678;2023-09-19T05:33:21;6.35;;;1.65;;
80711;SDS011;70078;51.596;5.678;2023-09-19T05:35:49;8.55;;;2.42;;
80711;SDS011;70078;51.596;5.678;2023-09-19T05:38:18;10.18;;;1.83;;
80711;SDS011;70078;51.596;5.678;2023-09-19T05:40:44;10.13;;;2.28;;
80711;SDS011;70078;51.596;5.678;2023-09-19T05:43:18;9.23;;;1.73;;
80711;SDS011;70078;51.596;5.678;2023-09-19T05:45:53;7.40;;;2.17;;
80711;SDS011;70078;51.596;5.678;2023-09-19T05:51:32;11.23;;;2.05;;
80711;SDS011;70078;51.596;5.678;2023-09-19T05:54:01;8.50;;;1.73;;
80711;SDS011;70078;51.596;5.678;2023-09-19T05:56:29;9.85;;;1.95;;
80711;SDS011;70078;51.596;5.678;2023-09-19T05:58:55;7.78;;;2.10;;
80711;SDS011;70078;51.596;5.678;2023-09-19T06:01:30;12.80;;;1.88;;
80711;SDS011;70078;51.596;5.678;2023-09-19T06:04:01;8.27;;;2.55;;
80711;SDS011;70078;51.596;5.678;2023-09-19T06:06:55;7.57;;;2.25;;
80711;SDS011;70078;51.596;5.678;2023-09-19T06:09:28;7.82;;;1.48;;
80711;SDS011;70078;51.596;5.678;2023-09-19T06:11:56;10.15;;;2.03;;
80711;SDS011;70078;51.596;5.678;2023-09-19T06:14:22;9.05;;;2.40;;
80711;SDS011;70078;51.596;5.678;2023-09-19T06:16:49;8.85;;;1.73;;
80711;SDS011;70078;51.596;5.678;2023-09-19T06:19:15;4.95;;;1.52;;
80711;SDS011;70078;51.596;5.678;2023-09-19T06:21:40;7.25;;;2.10;;
80711;SDS011;70078;51.596;5.678;2023-09-19T06:24:14;5.78;;;1.77;;
80711;SDS011;70078;51.596;5.678;2023-09-19T06:26:40;9.02;;;2.08;;
80711;SDS011;70078;51.596;5.678;2023-09-19T06:29:09;8.32;;;1.92;;
80711;SDS011;70078;51.596;5.678;2023-09-19T06:31:42;7.65;;;1.95;;
80711;SDS011;70078;51.596;5.678;2023-09-19T06:34:16;6.95;;;1.92;;
80711;SDS011;70078;51.596;5.678;2023-09-19T06:36:51;7.88;;;2.28;;
80711;SDS011;70078;51.596;5.678;2023-09-19T06:39:19;12.00;;;2.28;;
80711;SDS011;70078;51.596;5.678;2023-09-19T06:45:05;11.40;;;2.20;;
80711;SDS011;70078;51.596;5.678;2023-09-19T06:47:33;7.93;;;2.00;;
80711;SDS011;70078;51.596;5.678;2023-09-19T06:50:20;10.65;;;1.85;;
80711;SDS011;70078;51.596;5.678;2023-09-19T06:55:38;8.85;;;1.90;;
80711;SDS011;70078;51.596;5.678;2023-09-19T06:58:10;7.25;;;1.83;;
80711;SDS011;70078;51.596;5.678;2023-09-19T07:00:36;9.45;;;2.00;;
80711;SDS011;70078;51.596;5.678;2023-09-19T07:03:03;9.13;;;2.08;;
80711;SDS011;70078;51.596;5.678;2023-09-19T07:08:58;6.65;;;1.90;;
80711;SDS011;70078;51.596;5.678;2023-09-19T07:14:53;7.88;;;1.95;;
80711;SDS011;70078;51.596;5.678;2023-09-19T07:17:19;5.60;;;1.30;;
80711;SDS011;70078;51.596;5.678;2023-09-19T07:19:46;10.25;;;2.22;;
80711;SDS011;70078;51.596;5.678;2023-09-19T07:22:13;15.48;;;2.85;;
80711;SDS011;70078;51.596;5.678;2023-09-19T07:24:38;10.52;;;2.05;;
80711;SDS011;70078;51.596;5.678;2023-09-19T07:27:04;8.43;;;1.83;;
80711;SDS011;70078;51.596;5.678;2023-09-19T07:29:30;9.90;;;1.92;;
80711;SDS011;70078;51.596;5.678;2023-09-19T07:31:56;10.45;;;2.38;;
80711;SDS011;70078;51.596;5.678;2023-09-19T07:34:21;7.47;;;1.98;;
80711;SDS011;70078;51.596;5.678;2023-09-19T07:36:48;9.23;;;2.67;;
80711;SDS011;70078;51.596;5.678;2023-09-19T07:39:13;6.53;;;1.95;;
80711;SDS011;70078;51.596;5.678;2023-09-19T07:41:39;12.70;;;2.17;;
80711;SDS011;70078;51.596;5.678;2023-09-19T07:44:04;10.05;;;2.40;;
80711;SDS011;70078;51.596;5.678;2023-09-19T07:46:29;12.20;;;2.63;;
80711;SDS011;70078;51.596;5.678;2023-09-19T07:48:56;8.85;;;1.90;;
80711;SDS011;70078;51.596;5.678;2023-09-19T07:51:22;10.07;;;2.53;;
80711;SDS011;70078;51.596;5.678;2023-09-19T07:53:47;8.73;;;2.22;;
80711;SDS011;70078;51.596;5.678;2023-09-19T07:56:13;9.00;;;2.40;;
80711;SDS011;70078;51.596;5.678;2023-09-19T07:58:39;7.55;;;1.98;;
80711;SDS011;70078;51.596;5.678;2023-09-19T08:01:09;8.73;;;1.90;;
80711;SDS011;70078;51.596;5.678;2023-09-19T08:03:35;9.52;;;2.70;;
80711;SDS011;70078;51.596;5.678;2023-09-19T08:06:05;4.32;;;1.45;;
80711;SDS011;70078;51.596;5.678;2023-09-19T08:08:31;9.65;;;1.83;;
80711;SDS011;70078;51.596;5.678;2023-09-19T08:10:59;8.50;;;2.63;;
80711;SDS011;70078;51.596;5.678;2023-09-19T08:13:24;11.52;;;2.72;;
80711;SDS011;70078;51.596;5.678;2023-09-19T08:15:50;8.43;;;2.78;;
80711;SDS011;70078;51.596;5.678;2023-09-19T08:18:18;6.38;;;1.83;;
80711;SDS011;70078;51.596;5.678;2023-09-19T08:20:43;14.80;;;2.78;;
80711;SDS011;70078;51.596;5.678;2023-09-19T08:23:14;10.02;;;2.05;;
80711;SDS011;70078;51.596;5.678;2023-09-19T08:25:39;7.70;;;2.03;;
80711;SDS011;70078;51.596;5.678;2023-09-19T08:28:05;13.30;;;1.95;;
80711;SDS011;70078;51.596;5.678;2023-09-19T08:30:33;10.13;;;2.47;;
80711;SDS011;70078;51.596;5.678;2023-09-19T08:33:00;11.45;;;2.33;;
80711;SDS011;70078;51.596;5.678;2023-09-19T08:35:28;12.02;;;3.00;;
80711;SDS011;70078;51.596;5.678;2023-09-19T08:37:54;8.40;;;2.25;;
80711;SDS011;70078;51.596;5.678;2023-09-19T08:40:20;9.82;;;2.78;;
80711;SDS011;70078;51.596;5.678;2023-09-19T08:42:56;11.65;;;3.13;;
80711;SDS011;70078;51.596;5.678;2023-09-19T08:45:22;11.45;;;2.35;;
80711;SDS011;70078;51.596;5.678;2023-09-19T08:50:43;9.93;;;2.30;;
80711;SDS011;70078;51.596;5.678;2023-09-19T08:53:15;10.90;;;2.55;;
80711;SDS011;70078;51.596;5.678;2023-09-19T08:55:48;9.70;;;2.08;;
80711;SDS011;70078;51.596;5.678;2023-09-19T08:58:16;10.65;;;2.33;;
80711;SDS011;70078;51.596;5.678;2023-09-19T09:00:47;7.93;;;1.77;;
80711;SDS011;70078;51.596;5.678;2023-09-19T09:03:14;10.23;;;2.25;;
80711;SDS011;70078;51.596;5.678;2023-09-19T09:05:40;7.70;;;2.40;;
80711;SDS011;70078;51.596;5.678;2023-09-19T09:08:08;6.65;;;1.90;;
80711;SDS011;70078;51.596;5.678;2023-09-19T09:10:35;8.68;;;2.05;;
80711;SDS011;70078;51.596;5.678;2023-09-19T09:13:02;9.25;;;2.63;;
80711;SDS011;70078;51.596;5.678;2023-09-19T09:15:29;8.02;;;2.13;;
80711;SDS011;70078;51.596;5.678;2023-09-19T09:17:57;7.15;;;1.88;;
80711;SDS011;70078;51.596;5.678;2023-09-19T09:20:23;8.18;;;1.80;;
80711;SDS011;70078;51.596;5.678;2023-09-19T09:22:55;9.30;;;2.40;;
80711;SDS011;70078;51.596;5.678;2023-09-19T09:25:23;10.77;;;2.25;;
80711;SDS011;70078;51.596;5.678;2023-09-19T09:28:12;13.82;;;2.80;;
80711;SDS011;70078;51.596;5.678;2023-09-19T09:30:45;10.75;;;1.98;;
80711;SDS011;70078;51.596;5.678;2023-09-19T09:33:12;7.40;;;1.60;;
80711;SDS011;70078;51.596;5.678;2023-09-19T09:35:57;7.70;;;1.92;;
80711;SDS011;70078;51.596;5.678;2023-09-19T09:38:28;15.85;;;2.40;;
80711;SDS011;70078;51.596;5.678;2023-09-19T09:40:57;10.05;;;2.22;;
80711;SDS011;70078;51.596;5.678;2023-09-19T09:51:39;9.60;;;2.42;;
80711;SDS011;70078;51.596;5.678;2023-09-19T09:54:23;9.13;;;3.28;;
80711;SDS011;70078;51.596;5.678;2023-09-19T09:56:53;10.10;;;2.78;;
80711;SDS011;70078;51.596;5.678;2023-09-19T10:02:15;8.02;;;2.05;;
80711;SDS011;70078;51.596;5.678;2023-09-19T10:04:49;9.30;;;1.95;;
80711;SDS011;70078;51.596;5.678;2023-09-19T10:07:51;9.18;;;2.20;;
80711;SDS011;70078;51.596;5.678;2023-09-19T10:10:31;9.43;;;2.53;;
80711;SDS011;70078;51.596;5.678;2023-09-19T10:13:23;8.02;;;2.60;;
80711;SDS011;70078;51.596;5.678;2023-09-19T10:15:52;8.95;;;2.60;;
80711;SDS011;70078;51.596;5.678;2023-09-19T10:18:21;8.90;;;1.80;;
80711;SDS011;70078;51.596;5.678;2023-09-19T10:20:48;8.02;;;1.90;;
80711;SDS011;70078;51.596;5.678;2023-09-19T10:23:15;7.32;;;2.17;;
80711;SDS011;70078;51.596;5.678;2023-09-19T10:25:47;6.80;;;2.33;;
80711;SDS011;70078;51.596;5.678;2023-09-19T10:28:14;10.52;;;1.90;;
80711;SDS011;70078;51.596;5.678;2023-09-19T10:30:41;6.55;;;1.98;;
80711;SDS011;70078;51.596;5.678;2023-09-19T10:33:13;10.05;;;2.25;;
80711;SDS011;70078;51.596;5.678;2023-09-19T10:35:43;10.90;;;2.47;;
80711;SDS011;70078;51.596;5.678;2023-09-19T10:38:11;7.03;;;1.75;;
80711;SDS011;70078;51.596;5.678;2023-09-19T10:40:38;6.57;;;1.98;;
80711;SDS011;70078;51.596;5.678;2023-09-19T10:43:11;5.63;;;2.38;;
80711;SDS011;70078;51.596;5.678;2023-09-19T10:45:42;8.40;;;2.08;;
80711;SDS011;70078;51.596;5.678;2023-09-19T10:48:09;8.43;;;2.13;;
80711;SDS011;70078;51.596;5.678;2023-09-19T10:50:41;8.15;;;2.58;;
80711;SDS011;70078;51.596;5.678;2023-09-19T10:53:09;7.60;;;2.08;;
80711;SDS011;70078;51.596;5.678;2023-09-19T10:55:37;7.30;;;2.50;;
80711;SDS011;70078;51.596;5.678;2023-09-19T10:58:03;6.72;;;1.75;;
80711;SDS011;70078;51.596;5.678;2023-09-19T11:00:55;8.57;;;2.20;;
80711;SDS011;70078;51.596;5.678;2023-09-19T11:03:25;6.65;;;1.85;;
80711;SDS011;70078;51.596;5.678;2023-09-19T11:06:06;8.98;;;2.78;;
80711;SDS011;70078;51.596;5.678;2023-09-19T11:28:37;9.00;;;2.55;;
80711;SDS011;70078;51.596;5.678;2023-09-19T11:31:41;6.40;;;1.85;;
80711;SDS011;70078;51.596;5.678;2023-09-19T11:34:39;7.43;;;2.17;;
80711;SDS011;70078;51.596;5.678;2023-09-19T11:50:43;6.43;;;1.38;;
80711;SDS011;70078;51.596;5.678;2023-09-19T11:56:45;7.13;;;1.67;;
80711;SDS011;70078;51.596;5.678;2023-09-19T12:07:15;3.92;;;1.33;;
80711;SDS011;70078;51.596;5.678;2023-09-19T12:09:48;7.43;;;1.88;;
80711;SDS011;70078;51.596;5.678;2023-09-19T12:12:26;7.03;;;1.40;;
80711;SDS011;70078;51.596;5.678;2023-09-19T12:14:58;6.80;;;1.30;;
80711;SDS011;70078;51.596;5.678;2023-09-19T12:17:34;6.97;;;4.13;;
80711;SDS011;70078;51.596;5.678;2023-09-19T12:23:25;4.55;;;1.40;;
80711;SDS011;70078;51.596;5.678;2023-09-19T12:25:57;6.13;;;1.40;;
80711;SDS011;70078;51.596;5.678;2023-09-19T12:29:20;5.85;;;1.35;;
80711;SDS011;70078;51.596;5.678;2023-09-19T12:51:06;6.38;;;1.58;;
80711;SDS011;70078;51.596;5.678;2023-09-19T12:56:57;4.47;;;1.45;;
80711;SDS011;70078;51.596;5.678;2023-09-19T12:59:29;5.57;;;1.50;;
80711;SDS011;70078;51.596;5.678;2023-09-19T13:02:03;4.28;;;0.95;;
80711;SDS011;70078;51.596;5.678;2023-09-19T13:04:32;6.35;;;1.05;;
80711;SDS011;70078;51.596;5.678;2023-09-19T13:06:59;6.55;;;1.38;;
80711;SDS011;70078;51.596;5.678;2023-09-19T13:09:26;4.90;;;1.13;;
80711;SDS011;70078;51.596;5.678;2023-09-19T13:12:03;4.78;;;1.02;;
80711;SDS011;70078;51.596;5.678;2023-09-19T13:14:30;4.13;;;1.13;;
80711;SDS011;70078;51.596;5.678;2023-09-19T13:17:08;7.13;;;1.50;;
80711;SDS011;70078;51.596;5.678;2023-09-19T13:19:44;3.97;;;1.13;;
80711;SDS011;70078;51.596;5.678;2023-09-19T13:25:17;4.50;;;1.23;;
80711;SDS011;70078;51.596;5.678;2023-09-19T13:27:44;2.13;;;0.75;;
80711;SDS011;70078;51.596;5.678;2023-09-19T13:30:19;5.25;;;1.48;;
80711;SDS011;70078;51.596;5.678;2023-09-19T13:32:45;2.67;;;0.98;;
80711;SDS011;70078;51.596;5.678;2023-09-19T13:35:12;4.18;;;1.27;;
80711;SDS011;70078;51.596;5.678;2023-09-19T13:37:39;3.03;;;0.55;;
80711;SDS011;70078;51.596;5.678;2023-09-19T13:40:11;2.65;;;1.08;;
80711;SDS011;70078;51.596;5.678;2023-09-19T13:42:39;5.25;;;1.23;;
80711;SDS011;70078;51.596;5.678;2023-09-19T13:45:08;6.80;;;1.27;;
80711;SDS011;70078;51.596;5.678;2023-09-19T13:47:36;4.88;;;1.20;;
80711;SDS011;70078;51.596;5.678;2023-09-19T13:50:03;6.55;;;1.05;;
80711;SDS011;70078;51.596;5.678;2023-09-19T13:52:30;4.28;;;1.30;;
80711;SDS011;70078;51.596;5.678;2023-09-19T13:54:56;5.63;;;1.15;;
80711;SDS011;70078;51.596;5.678;2023-09-19T13:57:23;4.78;;;1.15;;
80711;SDS011;70078;51.596;5.678;2023-09-19T13:59:48;5.95;;;0.95;;
80711;SDS011;70078;51.596;5.678;2023-09-19T14:02:14;5.03;;;1.35;;
80711;SDS011;70078;51.596;5.678;2023-09-19T14:04:40;3.63;;;0.93;;
80711;SDS011;70078;51.596;5.678;2023-09-19T14:07:06;3.72;;;1.05;;
80711;SDS011;70078;51.596;5.678;2023-09-19T14:09:32;5.70;;;1.65;;
80711;SDS011;70078;51.596;5.678;2023-09-19T14:11:59;4.07;;;1.25;;
80711;SDS011;70078;51.596;5.678;2023-09-19T14:14:25;4.68;;;1.23;;
80711;SDS011;70078;51.596;5.678;2023-09-19T14:16:50;2.22;;;1.35;;
80711;SDS011;70078;51.596;5.678;2023-09-19T14:19:17;6.68;;;1.55;;
80711;SDS011;70078;51.596;5.678;2023-09-19T14:21:43;3.78;;;0.75;;
80711;SDS011;70078;51.596;5.678;2023-09-19T14:24:28;4.40;;;1.20;;
80711;SDS011;70078;51.596;5.678;2023-09-19T14:26:56;3.90;;;1.08;;
80711;SDS011;70078;51.596;5.678;2023-09-19T14:29:22;3.40;;;1.00;;
80711;SDS011;70078;51.596;5.678;2023-09-19T14:31:47;3.35;;;1.08;;
80711;SDS011;70078;51.596;5.678;2023-09-19T14:34:13;4.22;;;1.02;;
80711;SDS011;70078;51.596;5.678;2023-09-19T14:36:39;3.75;;;1.33;;
80711;SDS011;70078;51.596;5.678;2023-09-19T14:39:05;4.68;;;1.02;;
80711;SDS011;70078;51.596;5.678;2023-09-19T14:41:34;4.00;;;1.30;;
80711;SDS011;70078;51.596;5.678;2023-09-19T14:44:03;5.15;;;1.35;;
80711;SDS011;70078;51.596;5.678;2023-09-19T14:46:31;7.97;;;1.23;;
80711;SDS011;70078;51.596;5.678;2023-09-19T14:48:56;3.50;;;1.10;;
80711;SDS011;70078;51.596;5.678;2023-09-19T14:51:27;4.22;;;1.27;;
80711;SDS011;70078;51.596;5.678;2023-09-19T14:53:54;4.13;;;1.25;;
80711;SDS011;70078;51.596;5.678;2023-09-19T14:56:19;5.10;;;1.30;;
80711;SDS011;70078;51.596;5.678;2023-09-19T14:58:45;5.60;;;0.95;;
80711;SDS011;70078;51.596;5.678;2023-09-19T15:01:12;5.43;;;1.13;;
80711;SDS011;70078;51.596;5.678;2023-09-19T15:03:39;4.13;;;1.08;;
80711;SDS011;70078;51.596;5.678;2023-09-19T15:06:06;4.28;;;0.93;;
80711;SDS011;70078;51.596;5.678;2023-09-19T15:08:34;3.67;;;1.02;;
80711;SDS011;70078;51.596;5.678;2023-09-19T15:11:03;5.68;;;1.33;;
80711;SDS011;70078;51.596;5.678;2023-09-19T15:13:30;3.40;;;1.23;;
80711;SDS011;70078;51.596;5.678;2023-09-19T15:16:03;4.95;;;1.13;;
80711;SDS011;70078;51.596;5.678;2023-09-19T15:18:35;4.25;;;1.30;;
80711;SDS011;70078;51.596;5.678;2023-09-19T15:21:05;4.95;;;1.20;;
80711;SDS011;70078;51.596;5.678;2023-09-19T15:23:37;4.88;;;1.40;;
80711;SDS011;70078;51.596;5.678;2023-09-19T15:26:04;4.45;;;1.23;;
80711;SDS011;70078;51.596;5.678;2023-09-19T15:28:30;3.60;;;1.13;;
80711;SDS011;70078;51.596;5.678;2023-09-19T15:31:03;5.10;;;1.02;;
80711;SDS011;70078;51.596;5.678;2023-09-19T15:33:31;4.50;;;1.50;;
80711;SDS011;70078;51.596;5.678;2023-09-19T15:36:15;5.25;;;1.15;;
80711;SDS011;70078;51.596;5.678;2023-09-19T15:41:17;4.00;;;1.63;;
80711;SDS011;70078;51.596;5.678;2023-09-19T15:43:44;4.25;;;0.85;;
80711;SDS011;70078;51.596;5.678;2023-09-19T15:46:10;4.88;;;1.02;;
80711;SDS011;70078;51.596;5.678;2023-09-19T15:48:36;4.72;;;1.20;;
80711;SDS011;70078;51.596;5.678;2023-09-19T15:51:04;5.10;;;1.02;;
80711;SDS011;70078;51.596;5.678;2023-09-19T15:53:46;4.30;;;1.23;;
80711;SDS011;70078;51.596;5.678;2023-09-19T15:56:14;3.35;;;1.73;;
80711;SDS011;70078;51.596;5.678;2023-09-19T15:58:44;5.60;;;1.35;;
80711;SDS011;70078;51.596;5.678;2023-09-19T16:01:10;4.32;;;0.95;;
80711;SDS011;70078;51.596;5.678;2023-09-19T16:03:47;6.75;;;1.70;;
80711;SDS011;70078;51.596;5.678;2023-09-19T16:06:37;2.65;;;1.17;;
80711;SDS011;70078;51.596;5.678;2023-09-19T16:09:03;3.83;;;0.95;;
80711;SDS011;70078;51.596;5.678;2023-09-19T16:11:31;5.43;;;1.65;;
80711;SDS011;70078;51.596;5.678;2023-09-19T16:14:01;4.20;;;1.23;;
80711;SDS011;70078;51.596;5.678;2023-09-19T16:16:43;4.07;;;1.25;;
80711;SDS011;70078;51.596;5.678;2023-09-19T16:19:33;3.70;;;1.58;;
80711;SDS011;70078;51.596;5.678;2023-09-19T16:22:01;4.38;;;1.40;;
80711;SDS011;70078;51.596;5.678;2023-09-19T16:24:28;7.70;;;1.77;;
80711;SDS011;70078;51.596;5.678;2023-09-19T16:26:58;5.13;;;1.70;;
80711;SDS011;70078;51.596;5.678;2023-09-19T16:36:14;3.78;;;1.23;;
80711;SDS011;70078;51.596;5.678;2023-09-19T16:38:46;4.85;;;1.40;;
80711;SDS011;70078;51.596;5.678;2023-09-19T16:41:17;2.28;;;0.95;;
80711;SDS011;70078;51.596;5.678;2023-09-19T16:43:46;4.60;;;1.55;;
80711;SDS011;70078;51.596;5.678;2023-09-19T16:46:13;2.85;;;1.15;;
80711;SDS011;70078;51.596;5.678;2023-09-19T16:48:53;5.75;;;1.48;;
80711;SDS011;70078;51.596;5.678;2023-09-19T16:55:26;5.38;;;1.33;;
80711;SDS011;70078;51.596;5.678;2023-09-19T16:57:53;4.70;;;1.63;;
80711;SDS011;70078;51.596;5.678;2023-09-19T17:00:19;7.40;;;2.00;;
80711;SDS011;70078;51.596;5.678;2023-09-19T17:02:47;5.22;;;1.60;;
80711;SDS011;70078;51.596;5.678;2023-09-19T17:05:18;4.28;;;2.08;;
80711;SDS011;70078;51.596;5.678;2023-09-19T17:07:47;5.25;;;1.70;;
80711;SDS011;70078;51.596;5.678;2023-09-19T17:10:13;4.40;;;1.25;;
80711;SDS011;70078;51.596;5.678;2023-09-19T17:12:43;7.25;;;1.33;;
80711;SDS011;70078;51.596;5.678;2023-09-19T17:15:11;5.53;;;1.60;;
80711;SDS011;70078;51.596;5.678;2023-09-19T17:17:36;6.32;;;1.58;;
80711;SDS011;70078;51.596;5.678;2023-09-19T17:20:07;6.45;;;1.33;;
80711;SDS011;70078;51.596;5.678;2023-09-19T17:22:33;4.88;;;1.60;;
80711;SDS011;70078;51.596;5.678;2023-09-19T17:25:01;5.10;;;1.23;;
80711;SDS011;70078;51.596;5.678;2023-09-19T17:27:28;5.30;;;1.42;;
80711;SDS011;70078;51.596;5.678;2023-09-19T17:30:00;4.90;;;1.05;;
80711;SDS011;70078;51.596;5.678;2023-09-19T17:32:28;5.35;;;1.55;;
80711;SDS011;70078;51.596;5.678;2023-09-19T17:35:01;3.70;;;1.17;;
80711;SDS011;70078;51.596;5.678;2023-09-19T17:37:36;4.65;;;1.48;;
80711;SDS011;70078;51.596;5.678;2023-09-19T17:40:49;6.30;;;1.60;;
80711;SDS011;70078;51.596;5.678;2023-09-19T17:43:37;6.28;;;1.27;;
80711;SDS011;70078;51.596;5.678;2023-09-19T17:46:09;5.97;;;1.45;;
80711;SDS011;70078;51.596;5.678;2023-09-19T17:48:43;6.05;;;1.48;;
80711;SDS011;70078;51.596;5.678;2023-09-19T17:51:14;5.05;;;1.52;;
80711;SDS011;70078;51.596;5.678;2023-09-19T17:53:41;4.82;;;1.63;;
80711;SDS011;70078;51.596;5.678;2023-09-19T17:59:30;5.85;;;1.55;;
80711;SDS011;70078;51.596;5.678;2023-09-19T18:01:56;5.45;;;1.65;;
80711;SDS011;70078;51.596;5.678;2023-09-19T18:04:24;5.35;;;1.85;;
80711;SDS011;70078;51.596;5.678;2023-09-19T18:06:50;5.65;;;1.90;;
80711;SDS011;70078;51.596;5.678;2023-09-19T18:09:24;5.07;;;1.63;;
80711;SDS011;70078;51.596;5.678;2023-09-19T18:11:55;6.28;;;2.55;;
80711;SDS011;70078;51.596;5.678;2023-09-19T18:14:23;4.38;;;1.77;;
80711;SDS011;70078;51.596;5.678;2023-09-19T18:16:52;3.83;;;1.33;;
80711;SDS011;70078;51.596;5.678;2023-09-19T18:19:32;3.97;;;1.40;;
80711;SDS011;70078;51.596;5.678;2023-09-19T18:25:58;6.70;;;1.45;;
80711;SDS011;70078;51.596;5.678;2023-09-19T19:13:47;4.90;;;1.55;;
80711;SDS011;70078;51.596;5.678;2023-09-19T19:56:09;7.25;;;1.73;;
80711;SDS011;70078;51.596;5.678;2023-09-19T20:42:11;5.40;;;1.55;;
80711;SDS011;70078;51.596;5.678;2023-09-19T21:08:48;5.32;;;1.73;;
80711;SDS011;70078;51.596;5.678;2023-09-19T21:11:48;5.68;;;1.65;;
80711;SDS011;70078;51.596;5.678;2023-09-19T21:36:33;7.20;;;1.52;;
80711;SDS011;70078;51.596;5.678;2023-09-19T21:45:58;5.03;;;1.55;;
80711;SDS011;70078;51.596;5.678;2023-09-19T22:08:56;8.00;;;2.13;;
80711;SDS011;70078;51.596;5.678;2023-09-19T22:12:09;5.82;;;2.72;;
80711;SDS011;70078;51.596;5.678;2023-09-19T22:25:31;3.65;;;1.75;;
80711;SDS011;70078;51.596;5.678;2023-09-19T23:05:16;6.80;;;1.67;;
80711;SDS011;70078;51.596;5.678;2023-09-19T23:12:06;5.97;;;1.60;;